CheckWX is a tool to help pilots better visualize weather data.  It is not intended as a substitute for an official pre-flight weather briefing.

22:55:03 UTC

GUCY METAR
Conakry Airport
Conakry, Guinea
Current

4 hours ago

GUCY 261900Z 28010KT CAVOK 27/20 Q1011
Observed
Mar-26 @ 19:00 UTC
Wind
  • 280° at 10 KTS
Visibility
10,000+ meters
Flight Rules
VFR
Cloud Levels
  • Clear skies
Temperature
27°C / 81°F
Dewpoint
20°C / 68°F
Humidity
66%
Altimeter
29.85" Hg
Pressure
1010.92 hPa
Previous

5 hours ago

GUCY 261800Z 27014KT CAVOK 28/20 Q1010 NOSIG
Observed
Mar-26 @ 18:00 UTC
Wind
  • 270° at 14 KTS
Visibility
10,000+ meters
Flight Rules
VFR
Cloud Levels
  • Clear skies
Temperature
28°C / 82°F
Dewpoint
20°C / 68°F
Humidity
62%
Altimeter
29.82" Hg
Pressure
1009.92 hPa
Previous

12 hours ago

GUCY 261100Z 34008KT CAVOK 31/18 Q1013 NOSIG
Observed
Mar-26 @ 11:00 UTC
Wind
  • 340° at 8 KTS
Visibility
10,000+ meters
Flight Rules
VFR
Cloud Levels
  • Clear skies
Temperature
31°C / 88°F
Dewpoint
18°C / 64°F
Humidity
46%
Altimeter
29.91" Hg
Pressure
1012.92 hPa